Mc Neil, Arkansas
Current Conditions -  °F | °C
As of 2:14 PM on Sunday 23 Nov 2014 (Local Time) from KELD Reporting Station
Few Clouds Few Clouds  
Wind Chill: 68°   Ceiling: Unl
Heat Index: 68°   Visibility: 10mi
Dew Point: 62°   Wind: 10mph
Humidity: 81%   Direction: 200°SSW
Pressure: 29.42"   Gusts: NA
Location:  33.3852°N, 93.1737°W
Report Text: KELD 232014Z AUTO 20009KT 10SM FEW019 FEW026 20/17 A2942 RMK AO2 T02000167
Loading
Personal Weather Stations






























Interactive Weather Map New forecast layout! Learn more

10-Day Weather Forecast

Advertisements
Track Severe Weather on mobile